Time;durP1;ratioP1;P1;durP2;ratioP2;P2;SDS_P1;SDS_P2;PMS_P1;PMS_P2;Temp;Humidity;BMP_temperature;BMP_pressure;BME280_temperature;BME280_humidity;BME280_pressure;Samples;Min_cycle;Max_cycle;Signal;HPM_P1;HPM_P2
2022/08/05 00:05:04;;;;;;;8.85;7.78;;;;;;;18.57;100.00;99229.09;1741853;81;20990;-77
2022/08/05 00:11:58;;;;;;;9.33;8.63;;;;;;;18.54;100.00;99226.70;1733855;82;21069;-76
2022/08/05 00:14:28;;;;;;;8.68;7.97;;;;;;;18.51;100.00;99222.98;1737215;82;21132;-76
2022/08/05 00:21:22;;;;;;;9.68;8.68;;;;;;;18.49;100.00;99228.84;1729242;82;21045;-77
2022/08/05 00:23:51;;;;;;;9.50;8.58;;;;;;;18.49;100.00;99229.68;1723750;81;21528;-76
2022/08/05 00:30:49;;;;;;;9.65;8.65;;;;;;;18.58;100.00;99233.41;1744528;82;20978;-76
2022/08/05 00:33:18;;;;;;;8.43;7.72;;;;;;;18.66;100.00;99235.45;1735393;82;21230;-76
2022/08/05 00:40:13;;;;;;;9.08;8.20;;;;;;;18.68;100.00;99240.13;1734953;81;21541;-76
2022/08/05 00:42:42;;;;;;;8.53;7.83;;;;;;;18.74;100.00;99238.34;1749298;81;21002;-77
2022/08/05 00:49:39;;;;;;;8.85;8.15;;;;;;;18.75;100.00;99236.91;1726579;82;21423;-77
2022/08/05 00:52:08;;;;;;;9.43;8.40;;;;;;;18.76;100.00;99229.84;1729614;81;21459;-78
2022/08/05 00:59:01;;;;;;;9.15;8.30;;;;;;;18.78;100.00;99231.87;1750131;81;21038;-76
2022/08/05 01:01:32;;;;;;;9.50;8.65;;;;;;;18.75;100.00;99231.63;1735849;81;21006;-76
2022/08/05 01:08:27;;;;;;;10.40;9.50;;;;;;;18.70;100.00;99236.89;1725221;82;21078;-76
2022/08/05 01:11:05;;;;;;;9.98;8.98;;;;;;;18.69;100.00;99224.20;1748443;81;20963;-76
2022/08/05 01:17:59;;;;;;;10.98;9.88;;;;;;;18.74;100.00;99222.05;1728373;82;20994;-76
2022/08/05 01:20:37;;;;;;;12.93;9.63;;;;;;;18.76;100.00;99224.09;1728972;81;21314;-76
2022/08/05 01:31:52;;;;;;;12.10;11.00;;;;;;;18.76;100.00;99225.41;1724359;81;20985;-76
2022/08/05 01:39:14;;;;;;;12.53;11.30;;;;;;;18.69;100.00;99224.68;1670679;84;21015;-76
2022/08/05 01:46:08;;;;;;;12.18;10.80;;;;;;;18.67;100.00;99222.64;1677159;84;21029;-75
2022/08/05 01:48:38;;;;;;;12.10;10.95;;;;;;;18.69;100.00;99219.41;1677106;84;21139;-75
2022/08/05 01:55:32;;;;;;;14.33;12.68;;;;;;;18.66;100.00;99217.85;1689900;84;21485;-76
2022/08/05 01:58:06;;;;;;;15.58;13.30;;;;;;;18.65;100.00;99225.39;1692448;84;21132;-75
2022/08/05 02:05:00;;;;;;;14.28;12.88;;;;;;;18.61;100.00;99221.80;1694073;81;20918;-77
2022/08/05 02:07:28;;;;;;;13.28;11.97;;;;;;;18.59;100.00;99224.07;1731691;81;21017;-77
2022/08/05 02:14:40;;;;;;;12.47;11.28;;;;;;;18.54;100.00;99223.59;1733747;81;20947;-76
2022/08/05 02:17:16;;;;;;;11.68;10.63;;;;;;;18.53;100.00;99222.38;1728562;82;21045;-76
2022/08/05 02:23:52;;;;;;;11.45;10.13;;;;;;;18.48;100.00;99229.80;1736232;81;21030;-76
2022/08/05 02:26:24;;;;;;;10.15;9.28;;;;;;;18.46;100.00;99229.91;1732387;81;21132;-76
2022/08/05 02:33:16;;;;;;;13.00;10.85;;;;;;;18.48;100.00;99242.97;1728258;82;21010;-75
2022/08/05 02:35:43;;;;;;;11.10;10.00;;;;;;;18.52;100.00;99232.56;1729475;82;20963;-75
2022/08/05 02:42:38;;;;;;;11.33;10.32;;;;;;;18.57;100.00;99227.30;1726794;82;21100;-77
2022/08/05 02:45:10;;;;;;;11.20;9.43;;;;;;;18.59;100.00;99220.12;1726691;81;21025;-78
2022/08/05 02:52:04;;;;;;;10.30;9.25;;;;;;;18.66;100.00;99231.50;1740363;81;20127;-75
2022/08/05 02:54:34;;;;;;;11.33;10.23;;;;;;;18.65;100.00;99231.98;1737717;81;20981;-77
2022/08/05 03:01:28;;;;;;;10.25;9.25;;;;;;;18.68;100.00;99229.11;1743976;82;20982;-77
2022/08/05 03:04:03;;;;;;;11.33;10.28;;;;;;;18.69;100.00;99232.11;1729590;82;20995;-77
2022/08/05 03:10:53;;;;;;;11.93;10.93;;;;;;;18.71;100.00;99228.03;1731120;82;21568;-77
2022/08/05 03:13:23;;;;;;;12.20;11.10;;;;;;;18.75;100.00;99229.00;1734160;81;21087;-76
2022/08/05 03:20:20;;;;;;;11.70;10.72;;;;;;;18.82;100.00;99230.65;1744484;82;21032;-76
2022/08/05 03:22:49;;;;;;;14.30;11.43;;;;;;;18.89;100.00;99231.37;1733999;82;20958;-76
2022/08/05 03:29:43;;;;;;;12.28;11.08;;;;;;;18.92;100.00;99240.36;1738171;81;20950;-77
2022/08/05 03:32:15;;;;;;;13.48;10.75;;;;;;;18.92;100.00;99244.78;1736617;82;21041;-78
2022/08/05 03:39:10;;;;;;;12.05;10.90;;;;;;;18.91;100.00;99251.86;1729563;82;20998;-78
2022/08/05 03:41:39;;;;;;;11.55;10.55;;;;;;;18.92;100.00;99244.78;1736822;81;21036;-76
2022/08/05 03:48:34;;;;;;;12.07;11.00;;;;;;;18.98;100.00;99255.33;1741013;81;21183;-78
2022/08/05 03:51:13;;;;;;;12.73;11.68;;;;;;;18.96;100.00;99251.50;1733967;81;21497;-77
2022/08/05 03:57:58;;;;;;;12.68;11.57;;;;;;;18.97;100.00;99255.81;1727456;82;21215;-77
2022/08/05 04:00:31;;;;;;;14.87;13.38;;;;;;;19.06;100.00;99264.77;1734178;82;21071;-76
2022/08/05 04:07:25;;;;;;;13.05;11.75;;;;;;;19.18;100.00;99263.81;1724158;82;21041;-76
2022/08/05 04:09:55;;;;;;;13.60;12.37;;;;;;;19.25;100.00;99252.63;1695973;83;22010;-76
2022/08/05 04:16:49;;;;;;;13.88;12.58;;;;;;;19.27;100.00;99250.70;1746003;82;21023;-76
2022/08/05 04:19:19;;;;;;;15.95;13.78;;;;;;;19.37;100.00;99256.09;1722580;82;20952;-77
2022/08/05 04:26:15;;;;;;;;;;;;;;;19.47;100.00;99256.16;1739677;82;20990;-76
2022/08/05 04:28:45;;;;;;;17.23;14.65;;;;;;;19.57;100.00;99258.45;1730779;82;20166;-76
2022/08/05 04:35:40;;;;;;;15.20;13.70;;;;;;;19.83;100.00;99255.81;1748278;82;20951;-76
2022/08/05 04:38:10;;;;;;;14.70;13.40;;;;;;;20.03;100.00;99258.59;1718042;81;21077;-77
2022/08/05 04:45:06;;;;;;;15.85;14.35;;;;;;;20.10;100.00;99259.76;1726200;81;20991;-76
2022/08/05 04:47:35;;;;;;;15.80;14.20;;;;;;;20.14;100.00;99255.91;1723833;81;21554;-76
2022/08/05 04:57:00;;;;;;;13.88;12.43;;;;;;;20.05;100.00;99260.14;1733954;82;21427;-76
2022/08/05 05:03:54;;;;;;;12.95;11.85;;;;;;;20.00;100.00;99258.84;1722240;82;21088;-77
2022/08/05 05:06:24;;;;;;;12.95;11.75;;;;;;;20.11;100.00;99259.63;1723625;82;21093;-72
2022/08/05 05:13:19;;;;;;;12.43;11.22;;;;;;;20.26;100.00;99255.69;1705549;81;21079;-73
2022/08/05 05:15:49;;;;;;;13.60;12.43;;;;;;;20.38;100.00;99258.31;1711420;83;21231;-85
2022/08/05 05:22:46;;;;;;;16.32;14.93;;;;;;;20.40;100.00;99266.42;1697345;82;21087;-73
2022/08/05 05:25:15;;;;;;;14.73;13.53;;;;;;;20.41;100.00;99269.42;1702078;82;21033;-75
2022/08/05 05:32:10;;;;;;;15.60;14.35;;;;;;;20.54;100.00;99266.11;1714795;82;21589;-74
2022/08/05 05:34:40;;;;;;;14.55;13.45;;;;;;;20.70;100.00;99266.11;1706574;83;21136;-78
2022/08/05 05:41:34;;;;;;;16.60;15.05;;;;;;;20.85;100.00;99260.80;1714136;82;21037;-73
2022/08/05 05:44:07;;;;;;;18.35;16.85;;;;;;;20.96;100.00;99258.91;1712952;82;21128;-74
2022/08/05 05:46:33;;;;;;;20.25;18.55;;;;;;;20.97;100.00;99258.43;1712595;83;21057;-74
2022/08/05 05:48:59;;;;;;;19.50;17.55;;;;;;;20.95;100.00;99266.49;1718901;82;21085;-73
2022/08/05 05:51:26;;;;;;;20.12;17.85;;;;;;;20.92;100.00;99263.27;1733863;81;21045;-74
2022/08/05 05:53:53;;;;;;;18.42;16.82;;;;;;;20.86;100.00;99263.31;1721805;82;20971;-79
2022/08/05 05:56:20;;;;;;;19.32;17.73;;;;;;;20.80;100.00;99268.28;1724707;82;21084;-75
2022/08/05 05:58:47;;;;;;;18.40;16.42;;;;;;;20.71;100.00;99262.01;1717396;82;21147;-75
2022/08/05 06:01:14;;;;;;;14.80;13.55;;;;;;;20.63;100.00;99260.50;1733211;81;21116;-78
2022/08/05 06:03:41;;;;;;;15.38;14.13;;;;;;;20.61;100.00;99265.91;1728240;81;21943;-76
2022/08/05 06:06:08;;;;;;;16.12;14.83;;;;;;;20.66;100.00;99269.48;1719885;82;21552;-79
2022/08/05 06:08:35;;;;;;;19.00;17.27;;;;;;;20.73;100.00;99264.03;1666659;82;21143;-75
2022/08/05 06:11:02;;;;;;;19.20;17.20;;;;;;;20.81;100.00;99270.80;1715021;82;21164;-77
2022/08/05 06:13:29;;;;;;;18.60;16.82;;;;;;;20.93;100.00;99266.27;1728429;81;21096;-75
2022/08/05 06:15:57;;;;;;;19.37;17.60;;;;;;;21.01;100.00;99269.06;1739510;81;21639;-78
2022/08/05 06:18:23;;;;;;;19.27;17.67;;;;;;;21.01;100.00;99261.61;1733689;81;21073;-77
2022/08/05 06:20:50;;;;;;;16.15;14.85;;;;;;;20.95;100.00;99265.66;1709728;83;21375;-75
2022/08/05 06:23:16;;;;;;;14.20;12.95;;;;;;;20.91;100.00;99266.89;1713812;82;21088;-75
2022/08/05 06:25:43;;;;;;;12.28;11.28;;;;;;;20.84;100.00;99267.89;1703135;82;22133;-78
2022/08/05 06:28:10;;;;;;;12.10;11.10;;;;;;;20.78;100.00;99273.73;1711415;82;21093;-74
2022/08/05 06:30:37;;;;;;;11.55;10.65;;;;;;;20.74;100.00;99280.25;1723808;82;21536;-75
2022/08/05 06:33:03;;;;;;;11.10;10.10;;;;;;;20.77;100.00;99281.80;1708629;82;21196;-80
2022/08/05 06:35:30;;;;;;;12.03;10.93;;;;;;;20.79;100.00;99284.63;1736261;82;21489;-78
2022/08/05 06:37:57;;;;;;;11.78;10.68;;;;;;;20.83;100.00;99289.17;1733297;82;21375;-78
2022/08/05 06:40:23;;;;;;;13.03;11.97;;;;;;;20.85;100.00;99288.56;1719654;83;21037;-76
2022/08/05 06:42:50;;;;;;;13.10;12.00;;;;;;;20.87;100.00;99291.42;1719590;83;21397;-76
2022/08/05 06:45:17;;;;;;;11.80;10.90;;;;;;;20.84;100.00;99300.09;1719785;83;21045;-72
2022/08/05 06:47:46;;;;;;;11.57;10.55;;;;;;;20.84;100.00;99302.27;1722968;81;21023;-76
2022/08/05 06:50:13;;;;;;;12.47;11.30;;;;;;;20.85;100.00;99307.06;1663008;84;21240;-74
2022/08/05 06:52:39;;;;;;;11.88;10.78;;;;;;;20.83;100.00;99299.75;1674295;84;21058;-75
2022/08/05 06:55:07;;;;;;;11.85;10.65;;;;;;;20.83;100.00;99303.71;1644564;85;21099;-72
2022/08/05 06:57:34;;;;;;;10.68;9.88;;;;;;;20.77;100.00;99301.14;1631901;85;21130;-76
2022/08/05 07:00:02;;;;;;;10.98;9.98;;;;;;;20.72;100.00;99305.97;1686184;83;21572;-75
2022/08/05 07:02:30;;;;;;;12.45;9.48;;;;;;;20.64;100.00;99305.30;1681893;82;22183;-78
2022/08/05 07:04:59;;;;;;;9.78;8.98;;;;;;;20.59;100.00;99304.00;1681676;83;21022;-77
2022/08/05 07:07:27;;;;;;;11.70;10.68;;;;;;;20.55;100.00;99304.78;1668187;84;21335;-74
2022/08/05 07:09:54;;;;;;;10.53;9.73;;;;;;;20.53;100.00;99304.55;1713053;82;21553;-78
2022/08/05 07:17:52;;;;;;;11.18;10.08;;;;;;;20.54;100.00;99311.02;1715425;82;20986;-75
2022/08/05 07:20:19;;;;;;;10.95;9.98;;;;;;;20.59;100.00;99302.20;1712396;81;21013;-75
2022/08/05 07:22:46;;;;;;;9.68;8.98;;;;;;;20.67;100.00;99309.97;1715695;82;21025;-75
2022/08/05 07:25:12;;;;;;;9.55;8.85;;;;;;;20.73;100.00;99312.09;1729435;81;21181;-76
2022/08/05 07:27:40;;;;;;;9.25;8.30;;;;;;;20.77;100.00;99312.19;1741090;81;22227;-73
2022/08/05 07:30:09;;;;;;;9.33;8.60;;;;;;;20.80;100.00;99311.42;1722963;82;20981;-75
2022/08/05 07:32:37;;;;;;;10.08;9.30;;;;;;;20.82;100.00;99312.12;1728062;82;21257;-76
2022/08/05 07:35:08;;;;;;;10.00;9.20;;;;;;;20.82;100.00;99321.38;1720890;81;21148;-73
2022/08/05 07:37:35;;;;;;;8.60;7.90;;;;;;;20.83;100.00;99316.92;1716986;82;20990;-77
2022/08/05 07:40:04;;;;;;;9.53;8.68;;;;;;;20.83;100.00;99316.92;1729885;81;21059;-76
2022/08/05 07:42:30;;;;;;;9.43;8.60;;;;;;;20.87;100.00;99316.54;1735451;82;21326;-77
2022/08/05 07:44:57;;;;;;;9.38;8.50;;;;;;;20.88;100.00;99317.38;1735912;82;21082;-77
2022/08/05 07:47:25;;;;;;;9.23;8.18;;;;;;;20.91;100.00;99317.95;1722147;81;21046;-76
2022/08/05 07:49:51;;;;;;;10.28;8.58;;;;;;;20.97;100.00;99320.08;1730390;82;21049;-77
2022/08/05 07:52:19;;;;;;;8.28;7.65;;;;;;;21.02;100.00;99316.17;1745664;81;21102;-75
2022/08/05 07:54:46;;;;;;;10.45;9.65;;;;;;;21.09;100.00;99316.84;1727025;81;21044;-76
2022/08/05 07:57:13;;;;;;;10.98;9.48;;;;;;;21.18;100.00;99316.53;1720505;81;21029;-76
2022/08/05 07:59:40;;;;;;;10.82;9.93;;;;;;;21.23;100.00;99315.17;1721713;81;21079;-74
2022/08/05 08:02:09;;;;;;;10.13;9.33;;;;;;;21.20;100.00;99315.43;1732529;82;20999;-75
2022/08/05 08:04:36;;;;;;;10.68;9.35;;;;;;;21.16;100.00;99320.63;1727237;82;21822;-77
2022/08/05 08:07:03;;;;;;;9.68;8.98;;;;;;;21.15;100.00;99326.05;1716856;82;21099;-75
2022/08/05 08:09:29;;;;;;;10.45;9.55;;;;;;;21.15;100.00;99324.25;1714177;81;21125;-75
2022/08/05 08:11:56;;;;;;;10.55;9.75;;;;;;;21.12;100.00;99325.00;1706466;82;21063;-74
2022/08/05 08:14:23;;;;;;;10.75;9.70;;;;;;;21.08;100.00;99320.45;1715796;81;21109;-77
2022/08/05 08:16:50;;;;;;;12.13;11.03;;;;;;;21.08;100.00;99321.77;1708584;82;21300;-78
2022/08/05 08:19:16;;;;;;;12.85;11.60;;;;;;;21.05;100.00;99322.03;1727302;82;21016;-77
2022/08/05 08:21:43;;;;;;;12.88;11.50;;;;;;;21.05;100.00;99323.84;1721995;82;21557;-75
2022/08/05 08:24:10;;;;;;;11.00;10.05;;;;;;;21.00;100.00;99326.88;1696076;82;21119;-76
2022/08/05 08:26:36;;;;;;;12.80;11.73;;;;;;;20.90;100.00;99329.50;1714039;83;21116;-77
2022/08/05 08:29:03;;;;;;;12.10;11.10;;;;;;;20.84;100.00;99326.05;1707552;82;21148;-75
2022/08/05 08:31:30;;;;;;;14.68;13.38;;;;;;;20.86;100.00;99325.44;1725678;82;21053;-75
2022/08/05 08:33:56;;;;;;;14.28;13.08;;;;;;;20.89;100.00;99323.86;1708878;82;21477;-72
2022/08/05 08:36:23;;;;;;;13.65;12.45;;;;;;;20.95;100.00;99325.98;1726692;82;21138;-76
2022/08/05 08:38:53;;;;;;;13.00;11.93;;;;;;;20.98;100.00;99327.53;1706895;82;21108;-76
2022/08/05 08:41:18;;;;;;;14.93;13.45;;;;;;;21.05;100.00;99327.33;1699420;82;21159;-81
2022/08/05 08:43:44;;;;;;;15.13;13.90;;;;;;;21.12;100.00;99325.83;1722471;82;21025;-77
2022/08/05 08:46:11;;;;;;;16.02;13.50;;;;;;;21.23;100.00;99323.11;1716337;81;20990;-80
2022/08/05 08:48:38;;;;;;;13.80;12.55;;;;;;;21.35;100.00;99326.98;1717912;81;21057;-77
2022/08/05 08:51:05;;;;;;;12.88;11.70;;;;;;;21.44;100.00;99334.93;1687840;83;21049;-76
2022/08/05 08:53:36;;;;;;;14.23;12.85;;;;;;;21.51;100.00;99330.78;1714679;83;21131;-77
2022/08/05 08:56:04;;;;;;;13.95;12.55;;;;;;;21.52;100.00;99336.42;1719748;83;21085;-78
2022/08/05 08:58:31;;;;;;;12.78;11.55;;;;;;;21.54;100.00;99337.61;1723858;82;21202;-75
2022/08/05 09:00:58;;;;;;;13.58;11.65;;;;;;;21.59;100.00;99336.69;1704868;82;21053;-76
2022/08/05 09:03:25;;;;;;;13.65;12.45;;;;;;;21.70;100.00;99334.43;1677873;83;21169;-76
2022/08/05 09:05:51;;;;;;;12.37;11.38;;;;;;;21.82;100.00;99339.45;1694127;82;22496;-79
2022/08/05 09:08:18;;;;;;;12.93;11.83;;;;;;;21.93;100.00;99337.17;1714603;82;21780;-77
2022/08/05 09:10:45;;;;;;;12.45;11.38;;;;;;;22.04;100.00;99334.41;1726158;82;21485;-78
2022/08/05 09:13:14;;;;;;;12.18;11.08;;;;;;;22.15;100.00;99339.58;1722891;82;21049;-73
2022/08/05 09:15:41;;;;;;;12.43;11.22;;;;;;;22.24;99.18;99336.56;1716545;82;21420;-72
2022/08/05 09:18:08;;;;;;;12.33;11.22;;;;;;;22.25;98.34;99335.09;1721746;82;21225;-72
2022/08/05 09:20:36;;;;;;;11.50;10.50;;;;;;;22.19;98.50;99335.64;1720918;82;21082;-80
2022/08/05 09:23:13;;;;;;;11.12;10.23;;;;;;;22.17;98.10;99337.63;1717612;81;21053;-69
2022/08/05 09:25:43;;;;;;;11.93;10.72;;;;;;;22.20;98.12;99339.97;1695733;83;21625;-70
2022/08/05 09:28:23;;;;;;;11.65;10.65;;;;;;;22.26;99.25;99339.91;1696538;83;21202;-72
2022/08/05 09:31:06;;;;;;;12.05;10.95;;;;;;;22.37;97.40;99340.27;1666762;83;21262;-72
2022/08/05 09:33:53;;;;;;;12.25;10.88;;;;;;;22.49;97.00;99334.65;1684152;83;22269;-73
2022/08/05 09:36:20;;;;;;;11.03;10.13;;;;;;;22.74;96.91;99343.81;1684378;83;21093;-72
2022/08/05 09:39:04;;;;;;;13.22;10.53;;;;;;;23.04;95.75;99342.75;1683220;83;21105;-72
2022/08/05 09:41:30;;;;;;;11.63;10.63;;;;;;;23.29;93.86;99336.77;1703063;82;21043;-73
2022/08/05 09:43:57;;;;;;;14.43;11.35;;;;;;;23.52;91.89;99337.73;1669165;82;21107;-72
2022/08/05 09:46:27;;;;;;;17.07;12.37;;;;;;;23.64;90.94;99340.52;1721752;82;21072;-73
2022/08/05 09:48:58;;;;;;;9.95;8.98;;;;;;;23.80;90.87;99338.51;1729684;82;20999;-73
2022/08/05 09:51:38;;;;;;;10.10;9.25;;;;;;;24.00;89.39;99333.39;1735940;82;21088;-74
2022/08/05 09:54:10;;;;;;;10.70;9.78;;;;;;;24.17;87.65;99335.23;1737202;82;21089;-73
2022/08/05 09:56:37;;;;;;;15.65;9.98;;;;;;;24.28;86.21;99336.34;1719126;82;21074;-74
2022/08/05 09:59:09;;;;;;;13.35;10.03;;;;;;;24.32;85.97;99329.73;1730582;81;21057;-72
2022/08/05 10:01:39;;;;;;;10.13;9.13;;;;;;;24.41;85.79;99327.95;1721427;82;21045;-73
2022/08/05 10:04:11;;;;;;;10.68;9.68;;;;;;;24.45;85.27;99334.64;1731567;82;21042;-73
2022/08/05 10:06:41;;;;;;;10.17;9.10;;;;;;;24.39;84.33;99339.23;1719572;82;21024;-73
2022/08/05 10:09:15;;;;;;;9.78;8.88;;;;;;;24.26;84.36;99336.98;1646869;85;21072;-73
2022/08/05 10:11:42;;;;;;;;;;;;;;;24.15;84.36;99337.20;1655016;85;21075;-72
2022/08/05 10:14:28;;;;;;;8.23;7.62;;;;;;;24.07;84.26;99333.14;1651397;85;21037;-73
2022/08/05 10:16:55;;;;;;;10.58;9.55;;;;;;;24.03;84.24;99335.75;1651361;85;21093;-74
2022/08/05 10:19:23;;;;;;;10.55;9.65;;;;;;;24.01;84.20;99331.08;1647780;86;21099;-73
2022/08/05 10:21:50;;;;;;;11.03;8.70;;;;;;;23.98;84.29;99334.88;1649031;85;21207;-72
2022/08/05 10:24:17;;;;;;;9.35;8.58;;;;;;;23.93;84.70;99333.19;1637939;86;21170;-75
2022/08/05 10:26:46;;;;;;;10.10;9.20;;;;;;;23.85;84.01;99337.58;1640765;86;21098;-73
2022/08/05 10:29:12;;;;;;;10.32;9.33;;;;;;;23.70;84.62;99331.95;1632996;86;21081;-72
2022/08/05 10:31:39;;;;;;;10.28;9.45;;;;;;;23.64;86.00;99331.22;1625928;86;20985;-72
2022/08/05 10:34:07;;;;;;;9.55;8.83;;;;;;;23.60;85.58;99326.70;1679472;83;21601;-72
2022/08/05 10:36:37;;;;;;;15.68;8.68;;;;;;;23.57;85.98;99324.37;1714976;82;21037;-71
2022/08/05 10:39:15;;;;;;;10.55;8.65;;;;;;;23.52;85.22;99331.09;1719597;81;22911;-72
2022/08/05 10:42:02;;;;;;;9.48;8.70;;;;;;;23.46;86.07;99324.53;1702145;82;21085;-72
2022/08/05 10:44:30;;;;;;;9.83;8.98;;;;;;;23.50;86.25;99323.25;1654136;83;21500;-73
2022/08/05 10:46:57;;;;;;;12.53;9.35;;;;;;;23.66;85.56;99324.78;1727909;81;21140;-73
2022/08/05 10:49:25;;;;;;;11.05;10.15;;;;;;;23.87;84.89;99326.31;1708791;82;21108;-74
2022/08/05 10:51:56;;;;;;;10.43;9.43;;;;;;;24.07;82.80;99319.02;1705312;82;21034;-73
2022/08/05 10:54:24;;;;;;;10.55;9.05;;;;;;;24.20;80.80;99330.08;1710144;82;21049;-73
2022/08/05 10:56:54;;;;;;;9.88;9.08;;;;;;;24.31;80.98;99324.57;1730079;82;21197;-73
2022/08/05 10:59:29;;;;;;;10.53;9.73;;;;;;;24.44;80.68;99321.50;1721164;82;21788;-72
2022/08/05 11:02:13;;;;;;;10.08;9.08;;;;;;;24.57;79.59;99320.61;1686216;82;21012;-72
2022/08/05 11:04:46;;;;;;;11.03;10.03;;;;;;;24.67;78.42;99322.66;1730956;81;21046;-73
2022/08/05 11:07:17;;;;;;;10.53;9.43;;;;;;;24.72;78.64;99316.38;1692509;82;21777;-72
2022/08/05 11:09:46;;;;;;;9.88;9.15;;;;;;;24.86;79.27;99322.44;1704398;82;21031;-72
2022/08/05 11:12:40;;;;;;;10.28;9.38;;;;;;;25.00;78.61;99322.36;1706573;82;22126;-71
2022/08/05 11:15:21;;;;;;;9.30;8.60;;;;;;;25.11;77.17;99326.09;1705476;81;21153;-73
2022/08/05 11:18:16;;;;;;;9.13;8.50;;;;;;;25.17;74.49;99323.30;1708863;81;21744;-73
2022/08/05 11:20:46;;;;;;;13.25;8.75;;;;;;;25.15;73.54;99326.11;1699995;81;21902;-73
2022/08/05 11:23:44;;;;;;;9.25;8.33;;;;;;;25.14;73.44;99335.09;1709015;82;21045;-72
2022/08/05 11:26:20;;;;;;;8.43;7.72;;;;;;;25.20;73.18;99331.77;1692561;83;21239;-71
2022/08/05 11:28:48;;;;;;;8.93;7.97;;;;;;;25.25;71.13;99326.80;1708482;82;21025;-72
2022/08/05 11:31:18;;;;;;;8.88;8.18;;;;;;;25.21;70.71;99325.95;1708805;82;21114;-73
2022/08/05 11:33:51;;;;;;;9.10;8.33;;;;;;;25.17;71.00;99329.95;1705070;83;21049;-72
2022/08/05 11:36:20;;;;;;;8.80;8.10;;;;;;;25.10;71.20;99327.58;1717222;82;21089;-73
2022/08/05 11:38:53;;;;;;;8.98;8.18;;;;;;;25.10;71.06;99325.75;1716202;82;21175;-72
2022/08/05 11:41:26;;;;;;;8.85;8.15;;;;;;;25.19;70.94;99330.09;1716267;82;22220;-72
2022/08/05 11:44:17;;;;;;;9.25;8.40;;;;;;;25.29;71.54;99317.52;1703229;81;21074;-73
2022/08/05 11:46:50;;;;;;;8.45;7.72;;;;;;;25.43;71.19;99318.71;1688817;82;22277;-73
2022/08/05 11:49:19;;;;;;;8.10;7.50;;;;;;;25.59;70.70;99317.41;1692506;82;21170;-72
2022/08/05 11:51:49;;;;;;;8.15;7.45;;;;;;;25.67;69.91;99318.81;1718426;81;21148;-72
2022/08/05 11:54:26;;;;;;;8.65;7.85;;;;;;;25.73;68.86;99327.98;1723543;82;21031;-72
2022/08/05 11:56:54;;;;;;;8.25;7.65;;;;;;;25.80;68.54;99322.32;1736520;81;21807;-72
2022/08/05 11:59:27;;;;;;;7.72;7.12;;;;;;;25.82;68.24;99324.82;1740447;81;21029;-72
2022/08/05 12:02:05;;;;;;;8.43;7.83;;;;;;;25.79;67.43;99324.65;1716926;81;21052;-73
2022/08/05 12:04:46;;;;;;;8.10;7.50;;;;;;;25.82;67.73;99313.66;1719567;83;21349;-72
2022/08/05 12:07:14;;;;;;;8.18;7.58;;;;;;;25.87;67.21;99311.84;1708177;82;21529;-73
2022/08/05 12:09:47;;;;;;;9.65;8.03;;;;;;;25.93;67.87;99311.20;1717413;83;21574;-74
2022/08/05 12:12:24;;;;;;;9.40;8.70;;;;;;;25.99;67.31;99314.52;1719574;83;21059;-73
2022/08/05 12:14:50;;;;;;;8.85;8.15;;;;;;;26.05;67.21;99304.03;1718581;82;21533;-72
2022/08/05 12:17:17;;;;;;;8.43;7.83;;;;;;;26.12;67.16;99308.70;1719382;83;21115;-73
2022/08/05 12:19:49;;;;;;;9.20;8.50;;;;;;;26.11;67.64;99310.54;1728113;81;22237;-73
2022/08/05 12:22:19;;;;;;;9.20;8.30;;;;;;;26.11;68.14;99319.87;1716322;82;21037;-73
2022/08/05 12:24:50;;;;;;;9.43;8.65;;;;;;;26.01;67.27;99313.35;1739728;81;21247;-73
2022/08/05 12:27:23;;;;;;;9.55;8.58;;;;;;;25.83;67.24;99310.50;1740291;81;21112;-73
2022/08/05 12:30:05;;;;;;;9.88;9.10;;;;;;;25.69;68.56;99314.66;1729879;81;21160;-74
2022/08/05 12:32:34;;;;;;;10.28;8.80;;;;;;;25.63;68.53;99310.81;1741120;81;21056;-74
2022/08/05 12:35:05;;;;;;;10.28;9.28;;;;;;;25.60;69.67;99307.59;1722043;82;21062;-72
2022/08/05 12:37:32;;;;;;;9.38;8.58;;;;;;;25.70;69.93;99309.66;1719297;83;21033;-72
2022/08/05 12:39:59;;;;;;;10.10;9.25;;;;;;;25.84;68.86;99308.17;1719596;82;21560;-73
2022/08/05 12:42:28;;;;;;;10.18;9.28;;;;;;;25.89;67.52;99309.86;1715334;83;21503;-72
2022/08/05 12:45:08;;;;;;;10.45;9.65;;;;;;;25.90;67.71;99307.03;1702157;82;21033;-73
2022/08/05 12:47:37;;;;;;;10.47;9.57;;;;;;;25.94;67.40;99304.88;1714169;82;21064;-73
2022/08/05 12:50:14;;;;;;;10.50;9.70;;;;;;;25.99;67.85;99302.52;1721934;82;21502;-74
2022/08/05 12:52:41;;;;;;;11.63;10.72;;;;;;;26.07;67.28;99305.20;1722927;81;21522;-73
2022/08/05 12:55:22;;;;;;;10.85;9.85;;;;;;;26.10;67.38;99304.88;1731832;81;21214;-74
2022/08/05 12:57:52;;;;;;;11.25;10.10;;;;;;;26.11;66.99;99307.04;1721844;81;21579;-75
2022/08/05 13:00:23;;;;;;;11.18;10.05;;;;;;;26.12;67.03;99308.20;1735378;82;21075;-75
2022/08/05 13:02:52;;;;;;;11.65;10.65;;;;;;;26.11;66.98;99311.03;1721367;81;21044;-74
2022/08/05 13:05:19;;;;;;;12.35;11.25;;;;;;;26.08;66.69;99314.86;1717707;81;21059;-76
2022/08/05 13:07:47;;;;;;;11.55;10.40;;;;;;;26.07;67.88;99311.36;1720285;81;20958;-75
2022/08/05 13:10:15;;;;;;;12.15;11.03;;;;;;;26.16;67.99;99314.87;1724408;82;21493;-75
2022/08/05 13:12:43;;;;;;;12.45;11.28;;;;;;;26.21;67.82;99311.19;1723653;82;21470;-74
2022/08/05 13:15:11;;;;;;;11.08;10.28;;;;;;;26.28;67.52;99308.20;1730359;81;21072;-74
2022/08/05 13:17:38;;;;;;;11.97;10.88;;;;;;;26.37;66.42;99305.91;1738464;81;21065;-74
2022/08/05 13:20:17;;;;;;;12.33;11.20;;;;;;;26.37;66.63;99305.07;1722971;82;21108;-75
2022/08/05 13:22:44;;;;;;;12.55;11.45;;;;;;;26.30;66.45;99311.56;1719918;82;21081;-75
2022/08/05 13:25:15;;;;;;;12.37;11.45;;;;;;;26.26;66.67;99300.86;1709784;83;21088;-74
2022/08/05 13:27:53;;;;;;;12.53;11.53;;;;;;;26.21;66.87;99301.02;1718539;83;21034;-75
2022/08/05 13:30:23;;;;;;;12.80;11.80;;;;;;;26.09;67.57;99303.20;1716278;83;21021;-74
2022/08/05 13:32:51;;;;;;;11.93;10.88;;;;;;;26.01;68.42;99310.69;1713358;83;21841;-74
2022/08/05 13:35:19;;;;;;;11.78;10.88;;;;;;;25.99;67.49;99306.02;1713951;83;20962;-75
2022/08/05 13:37:47;;;;;;;12.00;10.95;;;;;;;25.92;67.11;99295.71;1709476;83;20978;-76
2022/08/05 13:40:13;;;;;;;12.23;11.22;;;;;;;25.85;67.27;99293.86;1713117;83;21097;-76
2022/08/05 13:42:40;;;;;;;12.78;11.73;;;;;;;25.79;67.15;99296.67;1715444;82;21522;-76
2022/08/05 13:45:09;;;;;;;13.13;12.10;;;;;;;25.73;67.80;99294.19;1712213;83;21116;-76
2022/08/05 13:47:36;;;;;;;13.25;12.20;;;;;;;25.73;67.97;99291.53;1713473;83;21434;-76
2022/08/05 13:50:04;;;;;;;12.85;11.78;;;;;;;25.76;68.12;99282.88;1711073;83;21053;-76
2022/08/05 13:52:31;;;;;;;12.95;11.85;;;;;;;25.79;68.10;99280.69;1714156;82;21052;-75
2022/08/05 13:54:57;;;;;;;11.88;10.98;;;;;;;25.80;68.26;99281.03;1718447;83;20973;-74
2022/08/05 13:57:24;;;;;;;13.45;12.35;;;;;;;25.72;68.12;99276.55;1711700;83;21622;-74
2022/08/05 13:59:51;;;;;;;13.80;11.88;;;;;;;25.64;68.69;99280.52;1713305;83;21549;-74
2022/08/05 14:02:17;;;;;;;12.13;11.12;;;;;;;25.67;68.37;99278.86;1713955;83;20966;-74
2022/08/05 14:07:33;;;;;;;12.80;11.80;;;;;;;25.67;68.20;99270.03;1715431;83;21088;-74
2022/08/05 14:10:01;;;;;;;12.15;10.93;;;;;;;25.67;67.00;99266.88;1714131;82;21522;-75
2022/08/05 14:12:28;;;;;;;12.23;11.33;;;;;;;25.60;67.14;99264.98;1715598;83;21197;-76
2022/08/05 14:14:55;;;;;;;13.50;12.40;;;;;;;25.47;68.07;99265.47;1712212;83;21033;-74
2022/08/05 14:17:25;;;;;;;13.00;11.80;;;;;;;25.38;68.46;99263.28;1713259;82;21501;-75
2022/08/05 14:19:53;;;;;;;12.33;11.43;;;;;;;25.37;68.84;99270.13;1711818;82;21069;-75
2022/08/05 14:22:20;;;;;;;12.07;11.18;;;;;;;25.40;69.97;99270.61;1713446;83;21109;-74
2022/08/05 14:24:47;;;;;;;12.70;11.20;;;;;;;25.38;68.99;99269.10;1716559;83;21018;-74
2022/08/05 14:27:14;;;;;;;13.03;11.83;;;;;;;25.30;69.06;99271.76;1713612;83;21143;-74
2022/08/05 14:29:41;;;;;;;12.82;11.83;;;;;;;25.16;69.33;99274.55;1711546;83;21057;-75